Observation data for Morton on 07/17/2019      Previous  Date  Next       Current Mesonet Observations  Soil Data  Daily Summary Page  Observations in Plain Language
KMNS 170500Z 14007KT 27/11 A3005 RMK A01 T02660107  RH  038%=      5-min Rain = 0
KMNS 170505Z 15007KT 27/11 A3005 RMK A01 T02650108  RH  039%=      5-min Rain = 0
KMNS 170510Z 15007KT 27/11 A3005 RMK A01 T02650108  RH  039%=      5-min Rain = 0
KMNS 170515Z 15008KT 27/11 A3005 RMK A01 T02650108  RH  039%=      5-min Rain = 0
KMNS 170520Z 15007KT 27/11 A3005 RMK A01 T02650109  RH  039%=      5-min Rain = 0
KMNS 170525Z 15008KT 27/11 A3005 RMK A01 T02650110  RH  039%=      5-min Rain = 0
KMNS 170530Z 15007KT 27/11 A3004 RMK A01 T02650110  RH  039%=      5-min Rain = 0
KMNS 170535Z 15008KT 27/11 A3005 RMK A01 T02660110  RH  039%=      5-min Rain = 0
KMNS 170540Z 15008KT 27/11 A3005 RMK A01 T02660110  RH  039%=      5-min Rain = 0
KMNS 170545Z 15008KT 26/11 A3005 RMK A01 T02640111  RH  040%=      5-min Rain = 0
KMNS 170550Z 15008KT 26/11 A3005 RMK A01 T02620112  RH  041%=      5-min Rain = 0
KMNS 170555Z 15008KT 26/11 A3004 RMK A01 T02600113  RH  041%=      5-min Rain = 0
KMNS 170600Z 15008KT 26/11 A3004 RMK A01 T02580114  RH  042%=      5-min Rain = 0
KMNS 170605Z 15008KT 26/12 A3004 RMK A01 T02570115  RH  043%=      5-min Rain = 0
KMNS 170610Z 16006KT 26/12 A3005 RMK A01 T02560116  RH  043%=      5-min Rain = 0
KMNS 170615Z 15006KT 26/12 A3005 RMK A01 T02550116  RH  043%=      5-min Rain = 0
KMNS 170620Z 16005KT 25/12 A3005 RMK A01 T02530117  RH  044%=      5-min Rain = 0
KMNS 170625Z 15005KT 25/12 A3005 RMK A01 T02510118  RH  045%=      5-min Rain = 0
KMNS 170630Z 17004KT 25/12 A3006 RMK A01 T02490118  RH  046%=      5-min Rain = 0
KMNS 170635Z 17004KT 24/12 A3006 RMK A01 T02440119  RH  047%=      5-min Rain = 0
KMNS 170640Z 17005KT 24/12 A3005 RMK A01 T02440120  RH  048%=      5-min Rain = 0
KMNS 170645Z 18005KT 24/12 A3005 RMK A01 T02420120  RH  048%=      5-min Rain = 0
KMNS 170650Z 19005KT 24/12 A3006 RMK A01 T02360121  RH  050%=      5-min Rain = 0
KMNS 170655Z 20005KT 23/12 A3006 RMK A01 T02340122  RH  051%=      5-min Rain = 0
KMNS 170700Z 20005KT 23/12 A3006 RMK A01 T02330123  RH  052%=      5-min Rain = 0
KMNS 170705Z 21005KT 23/12 A3005 RMK A01 T02340123  RH  052%=      5-min Rain = 0
KMNS 170710Z 21005KT 23/12 A3005 RMK A01 T02330123  RH  052%=      5-min Rain = 0
KMNS 170715Z 21005KT 23/12 A3005 RMK A01 T02300124  RH  053%=      5-min Rain = 0
KMNS 170720Z 20006KT 23/12 A3005 RMK A01 T02300124  RH  053%=      5-min Rain = 0
KMNS 170725Z 20006KT 23/13 A3005 RMK A01 T02300125  RH  054%=      5-min Rain = 0
KMNS 170730Z 21005KT 23/13 A3005 RMK A01 T02290125  RH  054%=      5-min Rain = 0
KMNS 170735Z 21005KT 23/13 A3005 RMK A01 T02310125  RH  053%=      5-min Rain = 0
KMNS 170740Z 20006KT 23/13 A3006 RMK A01 T02330125  RH  053%=      5-min Rain = 0
KMNS 170745Z 20005KT 23/13 A3006 RMK A01 T02290126  RH  054%=      5-min Rain = 0
KMNS 170750Z 19005KT 23/13 A3006 RMK A01 T02260126  RH  055%=      5-min Rain = 0
KMNS 170755Z 19004KT 22/13 A3006 RMK A01 T02240126  RH  056%=      5-min Rain = 0
KMNS 170800Z 19004KT 22/13 A3006 RMK A01 T02230126  RH  056%=      5-min Rain = 0
KMNS 170805Z 20003KT 22/13 A3006 RMK A01 T02240126  RH  056%=      5-min Rain = 0
KMNS 170810Z 21002KT 22/13 A3006 RMK A01 T02230127  RH  057%=      5-min Rain = 0
KMNS 170815Z 20003KT 22/13 A3006 RMK A01 T02220127  RH  057%=      5-min Rain = 0
KMNS 170820Z 19004KT 22/13 A3006 RMK A01 T02220127  RH  057%=      5-min Rain = 0
KMNS 170825Z 18004KT 22/13 A3005 RMK A01 T02200128  RH  058%=      5-min Rain = 0
KMNS 170830Z 19004KT 22/13 A3005 RMK A01 T02190130  RH  059%=      5-min Rain = 0
KMNS 170835Z 18004KT 22/13 A3005 RMK A01 T02200130  RH  059%=      5-min Rain = 0
KMNS 170840Z 18004KT 22/13 A3005 RMK A01 T02210131  RH  059%=      5-min Rain = 0
KMNS 170845Z 19004KT 22/13 A3005 RMK A01 T02200131  RH  060%=      5-min Rain = 0
KMNS 170850Z 19005KT 22/13 A3005 RMK A01 T02180132  RH  061%=      5-min Rain = 0
KMNS 170855Z 18005KT 22/13 A3005 RMK A01 T02150133  RH  062%=      5-min Rain = 0
KMNS 170900Z 18005KT 21/13 A3005 RMK A01 T02140134  RH  063%=      5-min Rain = 0
KMNS 170905Z 16006KT 22/14 A3005 RMK A01 T02160137  RH  063%=      5-min Rain = 0
KMNS 170910Z 15007KT 22/14 A3005 RMK A01 T02220139  RH  062%=      5-min Rain = 0
KMNS 170915Z 16005KT 22/14 A3005 RMK A01 T02230139  RH  062%=      5-min Rain = 0
KMNS 170920Z 17005KT 22/14 A3005 RMK A01 T02240140  RH  062%=      5-min Rain = 0
KMNS 170925Z 18005KT 22/14 A3005 RMK A01 T02230140  RH  062%=      5-min Rain = 0
KMNS 170930Z 19005KT 22/14 A3005 RMK A01 T02190140  RH  064%=      5-min Rain = 0
KMNS 170935Z 20005KT 22/14 A3005 RMK A01 T02160141  RH  065%=      5-min Rain = 0
KMNS 170940Z 20006KT 22/14 A3005 RMK A01 T02170142  RH  065%=      5-min Rain = 0
KMNS 170945Z 20006KT 22/14 A3005 RMK A01 T02170143  RH  065%=      5-min Rain = 0
KMNS 170950Z 19006KT 22/14 A3005 RMK A01 T02160143  RH  066%=      5-min Rain = 0
KMNS 170955Z 18005KT 21/14 A3005 RMK A01 T02140143  RH  067%=      5-min Rain = 0
KMNS 171000Z 20005KT 21/14 A3005 RMK A01 T02130143  RH  067%=      5-min Rain = 0
KMNS 171005Z 18006KT 21/14 A3005 RMK A01 T02120144  RH  068%=      5-min Rain = 0
KMNS 171010Z 17006KT 22/15 A3004 RMK A01 T02160147  RH  068%=      5-min Rain = 0
KMNS 171015Z 17006KT 22/15 A3004 RMK A01 T02210150  RH  067%=      5-min Rain = 0
KMNS 171020Z 18005KT 22/15 A3005 RMK A01 T02200149  RH  067%=      5-min Rain = 0
KMNS 171025Z 19003KT 22/15 A3005 RMK A01 T02170149  RH  068%=      5-min Rain = 0
KMNS 171030Z 22004KT 21/15 A3005 RMK A01 T02140149  RH  069%=      5-min Rain = 0
KMNS 171035Z 24005KT 21/15 A3006 RMK A01 T02130150  RH  070%=      5-min Rain = 0
KMNS 171040Z 26006KT 22/15 A3006 RMK A01 T02160153  RH  070%=      5-min Rain = 0
KMNS 171045Z 27006KT 22/15 A3007 RMK A01 T02170153  RH  070%=      5-min Rain = 0
KMNS 171050Z 28005KT 22/15 A3007 RMK A01 T02150154  RH  071%=      5-min Rain = 0
KMNS 171055Z 25004KT 21/15 A3006 RMK A01 T02130153  RH  072%=      5-min Rain = 0
KMNS 171100Z 23004KT 21/15 A3006 RMK A01 T02110153  RH  073%=      5-min Rain = 0
KMNS 171105Z 25005KT 21/15 A3006 RMK A01 T02090153  RH  073%=      5-min Rain = 0
KMNS 171110Z 24004KT 21/15 A3006 RMK A01 T02080153  RH  074%=      5-min Rain = 0
KMNS 171115Z 20005KT 21/15 A3006 RMK A01 T02090153  RH  074%=      5-min Rain = 0
KMNS 171120Z 20006KT 21/16 A3006 RMK A01 T02120155  RH  073%=      5-min Rain = 0
KMNS 171125Z 21006KT 22/16 A3006 RMK A01 T02150156  RH  072%=      5-min Rain = 0
KMNS 171130Z 21006KT 22/16 A3006 RMK A01 T02170157  RH  072%=      5-min Rain = 0
KMNS 171135Z 21006KT 22/16 A3006 RMK A01 T02180157  RH  072%=      5-min Rain = 0
KMNS 171140Z 20006KT 22/16 A3006 RMK A01 T02190157  RH  071%=      5-min Rain = 0
KMNS 171145Z 19007KT 22/16 A3006 RMK A01 T02200158  RH  071%=      5-min Rain = 0
KMNS 171150Z 19007KT 22/16 A3006 RMK A01 T02170157  RH  072%=      5-min Rain = 0
KMNS 171155Z 19007KT 21/16 A3006 RMK A01 T02140156  RH  073%=      5-min Rain = 0
KMNS 171200Z 19007KT 21/16 A3006 RMK A01 T02130157  RH  074%=      5-min Rain = 0
KMNS 171205Z 18008KT 22/16 A3006 RMK A01 T02170160  RH  073%=      5-min Rain = 0
KMNS 171210Z 18009KT 22/16 A3006 RMK A01 T02220161  RH  072%=      5-min Rain = 0
KMNS 171215Z 17009KT 23/16 A3006 RMK A01 T02250162  RH  071%=      5-min Rain = 0
KMNS 171220Z 18009KT 23/16 A3006 RMK A01 T02280162  RH  070%=      5-min Rain = 0
KMNS 171225Z 18008KT 23/16 A3006 RMK A01 T02280162  RH  070%=      5-min Rain = 0
KMNS 171230Z 19008KT 23/16 A3006 RMK A01 T02280163  RH  070%=      5-min Rain = 0
KMNS 171235Z 19007KT 23/16 A3006 RMK A01 T02280163  RH  070%=      5-min Rain = 0
KMNS 171240Z 19008KT 23/16 A3007 RMK A01 T02280164  RH  071%=      5-min Rain = 0
KMNS 171245Z 19008KT 23/17 A3007 RMK A01 T02290165  RH  070%=      5-min Rain = 0
KMNS 171250Z 19008KT 23/17 A3006 RMK A01 T02320165  RH  070%=      5-min Rain = 0
KMNS 171255Z 19007KT 24/17 A3007 RMK A01 T02350166  RH  069%=      5-min Rain = 0
KMNS 171300Z 18007KT 24/17 A3007 RMK A01 T02370166  RH  068%=      5-min Rain = 0
KMNS 171305Z 18009KT 24/17 A3007 RMK A01 T02390166  RH  067%=      5-min Rain = 0
KMNS 171310Z 18009G14KT 24/17 A3007 RMK A01 T02410166  RH  066%=      5-min Rain = 0
KMNS 171315Z 18009KT 24/17 A3007 RMK A01 T02420166  RH  065%=      5-min Rain = 0
KMNS 171320Z 19010KT 24/17 A3007 RMK A01 T02430166  RH  066%=      5-min Rain = 0
KMNS 171325Z 19011KT 24/17 A3007 RMK A01 T02440167  RH  065%=      5-min Rain = 0
KMNS 171330Z 19011KT 25/17 A3008 RMK A01 T02460167  RH  065%=      5-min Rain = 0
KMNS 171335Z 19012KT 25/17 A3008 RMK A01 T02480167  RH  064%=      5-min Rain = 0
KMNS 171340Z 19014KT 25/17 A3008 RMK A01 T02500167  RH  063%=      5-min Rain = 0
KMNS 171345Z 19014KT 25/17 A3008 RMK A01 T02520167  RH  062%=      5-min Rain = 0
KMNS 171350Z 19014G22KT 26/17 A3008 RMK A01 T02550167  RH  061%=      5-min Rain = 0
KMNS 171355Z 19015KT 26/17 A3008 RMK A01 T02550165  RH  060%=      5-min Rain = 0
KMNS 171400Z 19015KT 26/17 A3008 RMK A01 T02580166  RH  059%=      5-min Rain = 0
KMNS 171405Z 18014KT 26/17 A3008 RMK A01 T02620165  RH  058%=      5-min Rain = 0
KMNS 171410Z 18013G19KT 27/17 A3008 RMK A01 T02660165  RH  057%=      5-min Rain = 0
KMNS 171415Z 18016KT 27/16 A3008 RMK A01 T02650162  RH  056%=      5-min Rain = 0
KMNS 171420Z 18015KT 27/16 A3008 RMK A01 T02660162  RH  055%=      5-min Rain = 0
KMNS 171425Z 19016KT 27/16 A3008 RMK A01 T02690161  RH  054%=      5-min Rain = 0
KMNS 171430Z 19014KT 27/16 A3008 RMK A01 T02720162  RH  054%=      5-min Rain = 0
KMNS 171435Z 19012G17KT 28/16 A3008 RMK A01 T02750163  RH  053%=      5-min Rain = 0
KMNS 171440Z 18015KT 28/16 A3008 RMK A01 T02760161  RH  052%=      5-min Rain = 0
KMNS 171445Z 18015KT 28/16 A3008 RMK A01 T02780161  RH  051%=      5-min Rain = 0
KMNS 171450Z 18014G19KT 28/16 A3008 RMK A01 T02800162  RH  051%=      5-min Rain = 0
KMNS 171455Z 19016KT 28/16 A3008 RMK A01 T02790159  RH  050%=      5-min Rain = 0
KMNS 171500Z 20016KT 28/16 A3008 RMK A01 T02800159  RH  050%=      5-min Rain = 0
KMNS 171505Z 19013KT 28/16 A3008 RMK A01 T02840161  RH  050%=      5-min Rain = 0
KMNS 171510Z 19012KT 29/16 A3008 RMK A01 T02880162  RH  049%=      5-min Rain = 0
KMNS 171515Z 18014KT 29/16 A3008 RMK A01 T02880160  RH  048%=      5-min Rain = 0
KMNS 171520Z 18013KT 29/16 A3008 RMK A01 T02870161  RH  048%=      5-min Rain = 0
KMNS 171525Z 17013KT 29/16 A3008 RMK A01 T02910160  RH  047%=      5-min Rain = 0
KMNS 171530Z 18013KT 29/16 A3008 RMK A01 T02920158  RH  046%=      5-min Rain = 0
KMNS 171535Z 19013KT 29/16 A3008 RMK A01 T02940157  RH  046%=      5-min Rain = 0
KMNS 171540Z 19013KT 30/16 A3008 RMK A01 T02950157  RH  045%=      5-min Rain = 0
KMNS 171545Z 20014KT 30/16 A3008 RMK A01 T02960156  RH  045%=      5-min Rain = 0
KMNS 171550Z 18013KT 30/16 A3008 RMK A01 T03000155  RH  044%=      5-min Rain = 0
KMNS 171555Z 20013KT 30/16 A3008 RMK A01 T03020157  RH  043%=      5-min Rain = 0
KMNS 171600Z 19014KT 30/16 A3008 RMK A01 T03010155  RH  043%=      5-min Rain = 0
KMNS 171605Z 19013G18KT 30/15 A3008 RMK A01 T03040153  RH  042%=      5-min Rain = 0
KMNS 171610Z 18014KT 31/15 A3008 RMK A01 T03060154  RH  042%=      5-min Rain = 0
KMNS 171615Z 17013KT 31/15 A3008 RMK A01 T03060154  RH  042%=      5-min Rain = 0
KMNS 171620Z 18014KT 31/15 A3008 RMK A01 T03090152  RH  040%=      5-min Rain = 0
KMNS 171625Z 18012G18KT 31/15 A3008 RMK A01 T03120154  RH  040%=      5-min Rain = 0
KMNS 171630Z 17013KT 31/15 A3008 RMK A01 T03120150  RH  039%=      5-min Rain = 0
KMNS 171635Z 18012KT 32/15 A3008 RMK A01 T03150152  RH  039%=      5-min Rain = 0
KMNS 171640Z 17012G17KT 31/16 A3008 RMK A01 T03140155  RH  040%=      5-min Rain = 0
KMNS 171645Z 19012KT 32/15 A3008 RMK A01 T03180153  RH  039%=      5-min Rain = 0
KMNS 171650Z 18012G18KT 32/15 A3008 RMK A01 T03190152  RH  038%=      5-min Rain = 0
KMNS 171655Z 19010KT 32/15 A3008 RMK A01 T03210152  RH  038%=      5-min Rain = 0
KMNS 171700Z 18013KT 32/14 A3008 RMK A01 T03230142  RH  035%=      5-min Rain = 0
KMNS 171705Z 16013G18KT 32/14 A3007 RMK A01 T03230143  RH  035%=      5-min Rain = 0
KMNS 171710Z 17012G19KT 32/14 A3007 RMK A01 T03230140  RH  034%=      5-min Rain = 0
KMNS 171715Z 18014G19KT 33/13 A3007 RMK A01 T03250134  RH  033%=      5-min Rain = 0
KMNS 171720Z 18012G19KT 33/14 A3007 RMK A01 T03270137  RH  033%=      5-min Rain = 0
KMNS 171725Z 19013G18KT 33/14 A3007 RMK A01 T03290138  RH  033%=      5-min Rain = 0
KMNS 171730Z 18012G17KT 33/15 A3007 RMK A01 T03290146  RH  035%=      5-min Rain = 0
KMNS 171735Z 17013G20KT 33/14 A3007 RMK A01 T03260140  RH  034%=      5-min Rain = 0
KMNS 171740Z 17013G20KT 33/13 A3007 RMK A01 T03310127  RH  030%=      5-min Rain = 0
KMNS 171745Z 16013G19KT 33/13 A3006 RMK A01 T03310131  RH  031%=      5-min Rain = 0
KMNS 171750Z 17014G19KT 33/13 A3007 RMK A01 T03320125  RH  030%=      5-min Rain = 0
KMNS 171755Z 17014KT 33/12 A3007 RMK A01 T03340121  RH  028%=      5-min Rain = 0
KMNS 171800Z 16013G19KT 33/13 A3007 RMK A01 T03330128  RH  030%=      5-min Rain = 0
KMNS 171805Z 17013G18KT 34/12 A3006 RMK A01 T03350121  RH  028%=      5-min Rain = 0
KMNS 171810Z 16010G16KT 34/13 A3006 RMK A01 T03360131  RH  030%=      5-min Rain = 0
KMNS 171815Z 16012G18KT 34/12 A3007 RMK A01 T03420123  RH  028%=      5-min Rain = 0
KMNS 171820Z 18013G20KT 34/12 A3007 RMK A01 T03380121  RH  028%=      5-min Rain = 0
KMNS 171825Z 17013G18KT 34/12 A3006 RMK A01 T03400115  RH  026%=      5-min Rain = 0
KMNS 171830Z 19013G20KT 34/11 A3006 RMK A01 T03390111  RH  026%=      5-min Rain = 0
KMNS 171835Z 18011KT 34/13 A3006 RMK A01 T03410126  RH  028%=      5-min Rain = 0
KMNS 171840Z 18012G18KT 34/12 A3006 RMK A01 T03430118  RH  026%=      5-min Rain = 0
KMNS 171845Z 18011G18KT 34/12 A3006 RMK A01 T03430116  RH  026%=      5-min Rain = 0
KMNS 171850Z 18011G16KT 34/13 A3005 RMK A01 T03430125  RH  028%=      5-min Rain = 0
KMNS 171855Z 17011KT 35/12 A3005 RMK A01 T03470121  RH  027%=      5-min Rain = 0
KMNS 171900Z 15012G18KT 34/12 A3005 RMK A01 T03430119  RH  027%=      5-min Rain = 0
KMNS 171905Z 16012G18KT 35/12 A3005 RMK A01 T03450119  RH  026%=      5-min Rain = 0
KMNS 171910Z 15013G18KT 35/12 A3005 RMK A01 T03450117  RH  026%=      5-min Rain = 0
KMNS 171915Z 15013KT 35/12 A3005 RMK A01 T03460117  RH  026%=      5-min Rain = 0
KMNS 171920Z 15012G19KT 34/12 A3005 RMK A01 T03430115  RH  026%=      5-min Rain = 0
KMNS 171925Z 16012KT 35/12 A3004 RMK A01 T03460116  RH  026%=      5-min Rain = 0
KMNS 171930Z 18010G15KT 35/11 A3004 RMK A01 T03500114  RH  025%=      5-min Rain = 0
KMNS 171935Z 16014G24KT 35/12 A3003 RMK A01 T03470117  RH  026%=      5-min Rain = 0
KMNS 171940Z 18012G18KT 35/12 A3004 RMK A01 T03510119  RH  026%=      5-min Rain = 0
KMNS 171945Z 17013G20KT 35/12 A3003 RMK A01 T03480117  RH  026%=      5-min Rain = 0
KMNS 171950Z 16012G18KT 35/12 A3003 RMK A01 T03470115  RH  026%=      5-min Rain = 0
KMNS 171955Z 18012G18KT 35/11 A3003 RMK A01 T03490113  RH  025%=      5-min Rain = 0
KMNS 172000Z 17008G14KT 35/12 A3003 RMK A01 T03510115  RH  025%=      5-min Rain = 0
KMNS 172005Z 16012G21KT 35/12 A3003 RMK A01 T03510116  RH  025%=      5-min Rain = 0
KMNS 172010Z 18010G15KT 35/12 A3002 RMK A01 T03520117  RH  025%=      5-min Rain = 0
KMNS 172015Z 18011KT 35/12 A3002 RMK A01 T03530118  RH  025%=      5-min Rain = 0
KMNS 172020Z 19011G17KT 35/12 A3002 RMK A01 T03520116  RH  025%=      5-min Rain = 0
KMNS 172025Z 17011KT 35/12 A3002 RMK A01 T03540115  RH  024%=      5-min Rain = 0
KMNS 172030Z 16010G16KT 35/12 A3002 RMK A01 T03520115  RH  025%=      5-min Rain = 0
KMNS 172035Z 16012G18KT 35/12 A3001 RMK A01 T03530116  RH  025%=      5-min Rain = 0
KMNS 172040Z 16009KT 35/11 A3001 RMK A01 T03510114  RH  025%=      5-min Rain = 0
KMNS 172045Z 17010G15KT 36/12 A3001 RMK A01 T03560117  RH  024%=      5-min Rain = 0
KMNS 172050Z 19013KT 36/11 A3001 RMK A01 T03600113  RH  023%=      5-min Rain = 0
KMNS 172055Z 18008G17KT 36/11 A3001 RMK A01 T03550111  RH  024%=      5-min Rain = 0
KMNS 172100Z 17011G17KT 36/11 A30 RMK A01 T03580111  RH  023%=      5-min Rain = 0
KMNS 172105Z 17009G15KT 36/11 A30 RMK A01 T03560108  RH  023%=      5-min Rain = 0
KMNS 172110Z 15010G17KT 36/11 A30 RMK A01 T03560108  RH  023%=      5-min Rain = 0
KMNS 172115Z 17010G16KT 36/11 A30 RMK A01 T03570108  RH  023%=      5-min Rain = 0
KMNS 172120Z 15011G16KT 35/10 A30 RMK A01 T03530102  RH  023%=      5-min Rain = 0
KMNS 172125Z 17011KT 36/10 A30 RMK A01 T03550104  RH  023%=      5-min Rain = 0
KMNS 172130Z 17011KT 36/10 A30 RMK A01 T03560103  RH  022%=      5-min Rain = 0
KMNS 172135Z 17011G16KT 36/11 A2999 RMK A01 T03600105  RH  022%=      5-min Rain = 0
KMNS 172140Z 17011KT 36/10 A2999 RMK A01 T03610104  RH  022%=      5-min Rain = 0
KMNS 172145Z 18009KT 36/10 A2999 RMK A01 T03590101  RH  022%=      5-min Rain = 0
KMNS 172150Z 16009KT 36/10 A2999 RMK A01 T03620100  RH  021%=      5-min Rain = 0
KMNS 172155Z 18011G16KT 36/10 A2999 RMK A01 T03620097  RH  021%=      5-min Rain = 0
KMNS 172200Z 18008KT 36/10 A2999 RMK A01 T03600096  RH  021%=      5-min Rain = 0
KMNS 172205Z 18012G17KT 36/10 A2998 RMK A01 T03630098  RH  021%=      5-min Rain = 0
KMNS 172210Z 18010KT 36/10 A2998 RMK A01 T03620099  RH  021%=      5-min Rain = 0
KMNS 172215Z 20006KT 36/10 A2998 RMK A01 T03620098  RH  021%=      5-min Rain = 0
KMNS 172220Z 15008G14KT 36/10 A2998 RMK A01 T03640100  RH  021%=      5-min Rain = 0
KMNS 172225Z 16008G15KT 36/10 A2998 RMK A01 T03600098  RH  021%=      5-min Rain = 0
KMNS 172230Z 16009G14KT 36/10 A2997 RMK A01 T03630099  RH  021%=      5-min Rain = 0
KMNS 172235Z 16009G18KT 36/10 A2997 RMK A01 T03630100  RH  021%=      5-min Rain = 0
KMNS 172240Z 17010G17KT 36/10 A2997 RMK A01 T03600103  RH  022%=      5-min Rain = 0
KMNS 172245Z 16011G18KT 36/11 A2998 RMK A01 T03580107  RH  023%=      5-min Rain = 0
KMNS 172250Z 13012KT 35/11 A2997 RMK A01 T03530112  RH  024%=      5-min Rain = 0
KMNS 172255Z 17010KT 35/11 A2998 RMK A01 T03540108  RH  023%=      5-min Rain = 0
KMNS 172300Z 14009G14KT 35/11 A2997 RMK A01 T03510113  RH  025%=      5-min Rain = 0
KMNS 172305Z 16012KT 35/11 A2997 RMK A01 T03530111  RH  024%=      5-min Rain = 0
KMNS 172310Z 15008G14KT 35/11 A2997 RMK A01 T03520107  RH  023%=      5-min Rain = 0
KMNS 172315Z 15009KT 35/11 A2996 RMK A01 T03540113  RH  024%=      5-min Rain = 0
KMNS 172320Z 17009KT 36/11 A2997 RMK A01 T03550108  RH  023%=      5-min Rain = 0
KMNS 172325Z 17009KT 36/10 A2996 RMK A01 T03570104  RH  022%=      5-min Rain = 0
KMNS 172330Z 16013KT 35/10 A2996 RMK A01 T03540104  RH  023%=      5-min Rain = 0
KMNS 172335Z 15011G16KT 35/10 A2996 RMK A01 T03490103  RH  023%=      5-min Rain = 0
KMNS 172340Z 14012G18KT 35/11 A2996 RMK A01 T03460108  RH  024%=      5-min Rain = 0
KMNS 172345Z 14011G18KT 34/11 A2996 RMK A01 T03420107  RH  025%=      5-min Rain = 0
KMNS 172350Z 15010KT 34/11 A2996 RMK A01 T03420109  RH  025%=      5-min Rain = 0
KMNS 172355Z 14012G17KT 34/11 A2996 RMK A01 T03380109  RH  026%=      5-min Rain = 0
KMNS 180000Z 14011G17KT 34/11 A2995 RMK A01 T03360109  RH  026%=      5-min Rain = 0
KMNS 180005Z 15009KT 33/11 A2996 RMK A01 T03330110  RH  027%=      5-min Rain = 0
KMNS 180010Z 16010KT 33/11 A2996 RMK A01 T03320110  RH  027%=      5-min Rain = 0
KMNS 180015Z 15013KT 33/11 A2995 RMK A01 T03310110  RH  027%=      5-min Rain = 0
KMNS 180020Z 14011G16KT 33/11 A2995 RMK A01 T03300108  RH  027%=      5-min Rain = 0
KMNS 180025Z 14010KT 33/11 A2995 RMK A01 T03290108  RH  027%=      5-min Rain = 0
KMNS 180030Z 15011KT 33/11 A2996 RMK A01 T03280108  RH  027%=      5-min Rain = 0
KMNS 180035Z 15011KT 33/11 A2996 RMK A01 T03270108  RH  027%=      5-min Rain = 0
KMNS 180040Z 14011KT 33/11 A2995 RMK A01 T03260107  RH  027%=      5-min Rain = 0
KMNS 180045Z 15011KT 33/11 A2995 RMK A01 T03260106  RH  027%=      5-min Rain = 0
KMNS 180050Z 15011KT 32/11 A2996 RMK A01 T03240107  RH  027%=      5-min Rain = 0
KMNS 180055Z 15009KT 32/11 A2996 RMK A01 T03230110  RH  028%=      5-min Rain = 0
KMNS 180100Z 15009KT 32/11 A2996 RMK A01 T03220111  RH  028%=      5-min Rain = 0
KMNS 180105Z 15009KT 32/11 A2996 RMK A01 T03210112  RH  029%=      5-min Rain = 0
KMNS 180110Z 15009KT 32/11 A2996 RMK A01 T03200112  RH  029%=      5-min Rain = 0
KMNS 180115Z 15010KT 32/11 A2996 RMK A01 T03190111  RH  029%=      5-min Rain = 0
KMNS 180120Z 15010KT 32/11 A2996 RMK A01 T03180110  RH  029%=      5-min Rain = 0
KMNS 180125Z 15011KT 32/11 A2996 RMK A01 T03170113  RH  030%=      5-min Rain = 0
KMNS 180130Z 15011KT 32/12 A2996 RMK A01 T03150117  RH  031%=      5-min Rain = 0
KMNS 180135Z 15011KT 31/12 A2996 RMK A01 T03140119  RH  032%=      5-min Rain = 0
KMNS 180140Z 15011KT 31/12 A2996 RMK A01 T03120121  RH  032%=      5-min Rain = 0
KMNS 180145Z 15011G16KT 31/12 A2996 RMK A01 T03120121  RH  032%=      5-min Rain = 0
KMNS 180150Z 15011KT 31/12 A2996 RMK A01 T03110122  RH  033%=      5-min Rain = 0
KMNS 180155Z 15011KT 31/12 A2996 RMK A01 T03090123  RH  033%=      5-min Rain = 0
KMNS 180200Z 15011KT 31/12 A2996 RMK A01 T03070123  RH  034%=      5-min Rain = 0
KMNS 180205Z 15011KT 31/12 A2996 RMK A01 T03060123  RH  034%=      5-min Rain = 0
KMNS 180210Z 15011KT 31/12 A2996 RMK A01 T03050123  RH  034%=      5-min Rain = 0
KMNS 180215Z 15011KT 30/12 A2996 RMK A01 T03040123  RH  034%=      5-min Rain = 0
KMNS 180220Z 15011KT 30/12 A2996 RMK A01 T03030123  RH  035%=      5-min Rain = 0
KMNS 180225Z 15011KT 30/12 A2996 RMK A01 T03010123  RH  035%=      5-min Rain = 0
KMNS 180230Z 15010KT 30/12 A2996 RMK A01 T02990124  RH  035%=      5-min Rain = 0
KMNS 180235Z 15010KT 30/12 A2996 RMK A01 T02960124  RH  036%=      5-min Rain = 0
KMNS 180240Z 15011KT 30/12 A2997 RMK A01 T02950124  RH  036%=      5-min Rain = 0
KMNS 180245Z 17011KT 29/13 A2997 RMK A01 T02920126  RH  037%=      5-min Rain = 0
KMNS 180250Z 16009KT 29/13 A2997 RMK A01 T02900127  RH  038%=      5-min Rain = 0
KMNS 180255Z 17010KT 29/13 A2997 RMK A01 T02900127  RH  038%=      5-min Rain = 0
KMNS 180300Z 17011KT 29/13 A2997 RMK A01 T02900128  RH  038%=      5-min Rain = 0
KMNS 180305Z 16009KT 29/13 A2997 RMK A01 T02880127  RH  038%=      5-min Rain = 0
KMNS 180310Z 17008KT 29/13 A2998 RMK A01 T02860126  RH  039%=      5-min Rain = 0
KMNS 180315Z 17009KT 28/13 A2998 RMK A01 T02840126  RH  039%=      5-min Rain = 0
KMNS 180320Z 17008KT 28/13 A2998 RMK A01 T02810126  RH  040%=      5-min Rain = 0
KMNS 180325Z 17007KT 28/13 A2998 RMK A01 T02800126  RH  040%=      5-min Rain = 0
KMNS 180330Z 16006KT 28/13 A2998 RMK A01 T02780127  RH  041%=      5-min Rain = 0
KMNS 180335Z 16006KT 28/13 A2998 RMK A01 T02760128  RH  042%=      5-min Rain = 0
KMNS 180340Z 16006KT 28/13 A2998 RMK A01 T02750129  RH  042%=      5-min Rain = 0
KMNS 180345Z 16006KT 27/13 A2998 RMK A01 T02730131  RH  043%=      5-min Rain = 0
KMNS 180350Z 14005KT 27/13 A2998 RMK A01 T02690132  RH  044%=      5-min Rain = 0
KMNS 180355Z 16006KT 27/13 A2998 RMK A01 T02670132  RH  045%=      5-min Rain = 0
KMNS 180400Z 16007KT 27/13 A2998 RMK A01 T02670133  RH  045%=      5-min Rain = 0
KMNS 180405Z 15008KT 27/13 A2998 RMK A01 T02660133  RH  046%=      5-min Rain = 0
KMNS 180410Z 15009KT 27/13 A2998 RMK A01 T02670134  RH  046%=      5-min Rain = 0
KMNS 180415Z 15008KT 27/14 A2998 RMK A01 T02660135  RH  046%=      5-min Rain = 0
KMNS 180420Z 15008KT 27/14 A2998 RMK A01 T02660136  RH  047%=      5-min Rain = 0
KMNS 180425Z 15007KT 26/14 A2998 RMK A01 T02640136  RH  047%=      5-min Rain = 0
KMNS 180430Z 16008KT 26/14 A2998 RMK A01 T02620137  RH  048%=      5-min Rain = 0
KMNS 180435Z 16010G15KT 26/14 A2998 RMK A01 T02610138  RH  049%=      5-min Rain = 0
KMNS 180440Z 16011KT 26/14 A2998 RMK A01 T02630139  RH  048%=      5-min Rain = 0
KMNS 180445Z 17010KT 26/14 A2998 RMK A01 T02600140  RH  050%=      5-min Rain = 0
KMNS 180450Z 16011KT 26/14 A2997 RMK A01 T02590140  RH  050%=      5-min Rain = 0
KMNS 180455Z 17010G15KT 26/14 A2998 RMK A01 T02570141  RH  051%=      5-min Rain = 0

Page generated in 0.0097 seconds.